KRAL/RAL METAR and TAF weather

Enter ICAO airport designator
Station Type Date Time Source
KRAL METAR 2022/01/26 14:53 UTC NOAA

KRAL 261453Z 07006KT 10SM CLR 11/M10 A3013 RMK AO2 SLP191 T01061100 51014


Station Type Date Time Source
KRAL Decoded METAR 2022/01/26 14:53 UTC NOAA

RIVERSIDE MUNICIPAL AIRPORT , CA, United States (KRAL) 33-57N 117-27W 252M
Jan 26, 2022 - 09:53 AM EST / 2022.01.26 1453 UTC
Wind: from the ENE (070 degrees) at 7 MPH (6 KT):0
Visibility: 10 mile(s):0
Sky conditions: clear
Temperature: 51.1 F (10.6 C)
Dew Point: 14.0 F (-10.0 C)
Relative Humidity: 22%
Pressure (altimeter): 30.13 in. Hg (1020 hPa)
Pressure tendency: 0.04 inches (1.4 hPa) higher than three hours ago
ob: KRAL 261453Z 07006KT 10SM CLR 11/M10 A3013 RMK AO2 SLP191 T01061100 51014
cycle: 15

Station Type Date Time Source
KRAL TAF UTC NOAA

Error!

Example: see airport list